TAF CYYY 230740Z 2308/2320 26012KT P6SM SCT030 BKN060
TEMPO 2308/2315 BKN020 OVC050
BECMG 2313/2315 28015G25KT RMK NXT FCST BY 231400Z
From batch tds/tafs/production/2022/9/23/h07_m59_tafs.cache.xml
Issued (9 days ago)
Forecasts
2308/2313 26012KT P6SM SCT3000 BKN6000

---
fcst_time_to: '2022-09-23T13:00:00Z'
sky_condition:
- - sky_cover: SCT
    cloud_base_ft_agl: '3000'
- - sky_cover: BKN
    cloud_base_ft_agl: '6000'
wind_speed_kt: '12'
fcst_time_from: '2022-09-23T08:00:00Z'
wind_dir_degrees: '260'
visibility_statute_mi: '6.21'

TEMPO 2308/2315 BKN2000 OVC5000

---
fcst_time_to: '2022-09-23T15:00:00Z'
sky_condition:
- - sky_cover: BKN
    cloud_base_ft_agl: '2000'
- - sky_cover: OVC
    cloud_base_ft_agl: '5000'
fcst_time_from: '2022-09-23T08:00:00Z'
change_indicator: TEMPO

BECMG 2315/2320 28015G25KT P6SM SCT3000 BKN6000

---
fcst_time_to: '2022-09-23T20:00:00Z'
wind_gust_kt: '25'
sky_condition:
- - sky_cover: SCT
    cloud_base_ft_agl: '3000'
- - sky_cover: BKN
    cloud_base_ft_agl: '6000'
time_becoming: '2022-09-23T15:00:00Z'
wind_speed_kt: '15'
fcst_time_from: '2022-09-23T13:00:00Z'
change_indicator: BECMG
wind_dir_degrees: '280'
visibility_statute_mi: '6.21'

talk